createdAt,value
2023-04-18T00:02:17.516Z,39.08
2023-04-18T00:04:52.922Z,39.08
2023-04-18T00:07:21.908Z,39.10
2023-04-18T00:09:50.439Z,39.12
2023-04-18T00:12:19.165Z,39.24
2023-04-18T00:14:50.541Z,39.41
2023-04-18T00:17:20.647Z,39.42
2023-04-18T00:19:50.038Z,39.61
2023-04-18T00:22:22.667Z,39.57
2023-04-18T00:24:52.043Z,39.49
2023-04-18T00:27:21.011Z,39.67
2023-04-18T00:29:49.940Z,39.61
2023-04-18T00:32:18.639Z,39.72
2023-04-18T00:34:47.566Z,39.69
2023-04-18T00:37:16.113Z,39.62
2023-04-18T00:39:44.551Z,39.69
2023-04-18T00:42:13.331Z,39.77
2023-04-18T00:44:41.938Z,39.76
2023-04-18T00:47:11.624Z,39.88
2023-04-18T00:49:40.720Z,40.03
2023-04-18T00:52:09.359Z,40.14
2023-04-18T00:54:39.701Z,40.14
2023-04-18T00:57:08.692Z,40.25
2023-04-18T00:59:37.202Z,40.26
2023-04-18T01:02:06.036Z,40.33
2023-04-18T01:04:35.920Z,40.40
2023-04-18T01:07:04.659Z,40.58
2023-04-18T01:09:33.177Z,40.82
2023-04-18T01:12:02.261Z,40.72
2023-04-18T01:14:31.082Z,40.80
2023-04-18T01:16:59.808Z,40.76
2023-04-18T01:19:28.447Z,40.73
2023-04-18T01:21:57.272Z,40.74
2023-04-18T01:24:27.040Z,40.58
2023-04-18T01:26:55.585Z,40.71
2023-04-18T01:29:24.466Z,40.49
2023-04-18T01:31:53.185Z,40.53
2023-04-18T01:34:21.830Z,40.52
2023-04-18T01:36:50.669Z,40.46
2023-04-18T01:39:19.570Z,40.40
2023-04-18T01:41:48.136Z,40.47
2023-04-18T01:44:18.215Z,40.28
2023-04-18T01:46:47.791Z,40.32
2023-04-18T01:49:16.452Z,40.41
2023-04-18T01:51:44.940Z,40.61
2023-04-18T01:54:13.671Z,40.59
2023-04-18T01:56:42.410Z,40.78
2023-04-18T01:59:11.100Z,40.85
2023-04-18T02:01:40.704Z,40.93
2023-04-18T02:04:09.563Z,40.90
2023-04-18T02:06:38.666Z,41.09
2023-04-18T02:09:07.207Z,41.18
2023-04-18T02:11:36.286Z,41.27
2023-04-18T02:14:05.257Z,41.61
2023-04-18T02:16:35.570Z,41.61
2023-04-18T02:19:04.674Z,41.72
2023-04-18T02:21:33.717Z,41.77
2023-04-18T02:24:02.247Z,41.94
2023-04-18T02:26:30.885Z,41.98
2023-04-18T02:28:59.449Z,42.00
2023-04-18T02:31:28.034Z,41.82
2023-04-18T02:33:57.072Z,41.87
2023-04-18T02:36:27.489Z,41.87
2023-04-18T02:38:56.254Z,41.77
2023-04-18T02:41:24.822Z,41.91
2023-04-18T02:43:55.200Z,41.78
2023-04-18T02:46:23.638Z,41.62
2023-04-18T02:48:52.342Z,41.76
2023-04-18T02:51:26.607Z,41.69
2023-04-18T02:53:55.935Z,41.73
2023-04-18T02:56:25.299Z,41.81
2023-04-18T02:59:12.480Z,41.71
2023-04-18T03:01:54.761Z,41.69
2023-04-18T03:04:24.685Z,41.64
2023-04-18T03:07:02.432Z,41.60
2023-04-18T03:09:34.655Z,41.81
2023-04-18T03:12:07.092Z,41.73
2023-04-18T03:14:38.126Z,41.71
2023-04-18T03:17:07.374Z,41.62
2023-04-18T03:19:40.132Z,41.61
2023-04-18T03:22:11.209Z,41.53
2023-04-18T03:24:47.388Z,41.53
2023-04-18T03:27:16.145Z,41.54
2023-04-18T03:29:45.072Z,41.60
2023-04-18T03:32:13.662Z,41.64
2023-04-18T03:34:42.045Z,41.48
2023-04-18T03:37:10.619Z,41.38
2023-04-18T03:39:43.705Z,41.48
2023-04-18T03:42:12.345Z,41.58
2023-04-18T03:44:41.332Z,41.52
2023-04-18T03:47:09.894Z,41.63
2023-04-18T03:49:40.649Z,41.63
2023-04-18T03:52:09.432Z,41.33
2023-04-18T03:54:38.028Z,41.06
2023-04-18T03:57:06.622Z,40.87
2023-04-18T03:59:36.871Z,41.02
2023-04-18T04:02:05.646Z,41.10
2023-04-18T04:04:34.321Z,41.05
2023-04-18T04:07:02.993Z,40.96
2023-04-18T04:09:31.770Z,40.55
2023-04-18T04:12:03.140Z,40.33
2023-04-18T04:14:32.678Z,39.99
2023-04-18T04:17:01.287Z,39.34
2023-04-18T04:19:30.568Z,38.79
2023-04-18T04:22:13.731Z,38.21
2023-04-18T04:24:43.054Z,38.35
2023-04-18T04:27:13.880Z,38.48
2023-04-18T04:29:44.635Z,38.51
2023-04-18T04:32:14.508Z,38.51
2023-04-18T04:34:43.023Z,38.55
2023-04-18T04:37:18.917Z,38.77
2023-04-18T04:40:01.728Z,39.12
2023-04-18T04:42:41.291Z,39.19
2023-04-18T04:45:15.409Z,39.04
2023-04-18T04:47:44.143Z,38.79
2023-04-18T04:50:15.929Z,38.10
2023-04-18T04:52:44.833Z,37.37
2023-04-18T04:55:13.709Z,37.05
2023-04-18T04:57:42.816Z,36.12
2023-04-18T05:00:38.146Z,35.69
2023-04-18T05:03:08.636Z,34.68
2023-04-18T05:05:39.376Z,33.64
2023-04-18T05:08:07.948Z,33.41
2023-04-18T05:10:39.378Z,33.23
2023-04-18T05:13:08.015Z,32.51
2023-04-18T05:15:36.638Z,31.81
2023-04-18T05:18:05.383Z,31.64
2023-04-18T05:20:33.982Z,31.37
2023-04-18T05:23:02.544Z,31.29
2023-04-18T05:25:31.948Z,30.77
2023-04-18T05:28:01.485Z,30.54
2023-04-18T05:30:30.369Z,30.16
2023-04-18T05:32:58.918Z,29.91
2023-04-18T05:35:27.688Z,29.96
2023-04-18T05:37:56.530Z,30.09
2023-04-18T05:40:25.575Z,30.01
2023-04-18T05:42:54.192Z,29.85
2023-04-18T05:45:22.749Z,30.11
2023-04-18T05:47:51.545Z,29.32
2023-04-18T05:50:21.242Z,29.05
2023-04-18T05:52:49.853Z,29.08
2023-04-18T05:55:18.489Z,28.69
2023-04-18T05:57:47.109Z,28.86
2023-04-18T06:00:17.456Z,29.23
2023-04-18T06:02:46.221Z,29.68
2023-04-18T06:05:15.505Z,30.12
2023-04-18T06:07:44.181Z,30.60
2023-04-18T06:10:13.785Z,30.93
2023-04-18T06:12:42.587Z,31.37
2023-04-18T06:15:11.889Z,31.56
2023-04-18T06:17:41.572Z,32.02
2023-04-18T06:20:10.974Z,32.44
2023-04-18T06:22:40.446Z,32.70
2023-04-18T06:25:10.282Z,32.23
2023-04-18T06:27:39.142Z,31.88
2023-04-18T06:30:09.067Z,31.47
2023-04-18T06:32:37.812Z,31.05
2023-04-18T06:35:07.002Z,30.48
2023-04-18T06:37:35.825Z,29.74
2023-04-18T06:40:04.954Z,29.71
2023-04-18T06:42:33.709Z,29.49
2023-04-18T06:45:03.882Z,29.75
2023-04-18T06:47:33.074Z,29.91
2023-04-18T06:50:28.534Z,29.94
2023-04-18T06:53:05.948Z,30.02
2023-04-18T07:03:43.647Z,29.32
2023-04-18T07:06:30.759Z,29.29
2023-04-18T07:13:17.646Z,28.19
2023-04-18T07:16:12.722Z,27.70
2023-04-18T07:18:45.394Z,27.52
2023-04-18T07:21:15.029Z,27.19
2023-04-18T07:23:45.593Z,27.35
2023-04-18T07:26:14.769Z,26.84
2023-04-18T07:28:43.550Z,26.76
2023-04-18T07:31:14.781Z,26.45
2023-04-18T07:33:45.869Z,26.33
2023-04-18T07:36:14.956Z,26.21
2023-04-18T07:38:44.690Z,26.31
2023-04-18T07:41:13.397Z,25.97
2023-04-18T07:43:42.450Z,26.13
2023-04-18T07:46:11.300Z,26.18
2023-04-18T07:48:40.953Z,26.20
2023-04-18T07:51:10.008Z,26.34
2023-04-18T07:53:41.265Z,26.61
2023-04-18T07:56:14.682Z,25.96
2023-04-18T07:58:43.393Z,25.54
2023-04-18T08:01:15.410Z,25.52
2023-04-18T08:10:52.832Z,25.23
2023-04-18T08:14:05.711Z,24.98
2023-04-18T08:17:20.484Z,25.24
2023-04-18T08:20:07.662Z,25.68
2023-04-18T08:22:44.191Z,25.93
2023-04-18T08:25:31.980Z,26.04
2023-04-18T08:28:44.805Z,25.69
2023-04-18T08:31:43.285Z,25.64
2023-04-18T08:38:13.269Z,25.45
2023-04-18T08:44:41.240Z,25.14
2023-04-18T08:47:47.063Z,25.72
2023-04-18T08:51:30.627Z,25.82
2023-04-18T09:01:02.706Z,25.55
2023-04-18T09:04:18.830Z,25.19
2023-04-18T09:08:16.777Z,25.27
2023-04-18T09:15:34.066Z,25.32
2023-04-18T09:18:56.927Z,25.47
2023-04-18T09:29:23.984Z,26.11
2023-04-18T09:36:36.979Z,26.33
2023-04-18T09:40:01.007Z,26.23
2023-04-18T09:50:06.718Z,27.58
2023-04-18T09:53:24.290Z,27.18
2023-04-18T09:57:15.557Z,27.20
2023-04-18T10:00:45.622Z,27.13
2023-04-18T10:04:16.968Z,26.94
2023-04-18T10:07:06.660Z,26.76
2023-04-18T10:09:37.032Z,26.66
2023-04-18T10:12:14.051Z,26.93
2023-04-18T10:14:47.285Z,26.68
2023-04-18T10:17:29.646Z,27.65
2023-04-18T10:21:31.131Z,27.66
2023-04-18T10:24:00.964Z,28.27
2023-04-18T10:26:47.114Z,28.54
2023-04-18T10:29:15.973Z,28.82
2023-04-18T10:31:48.035Z,28.63
2023-04-18T10:34:19.891Z,28.75
2023-04-18T10:37:04.725Z,29.57
2023-04-18T10:39:51.304Z,29.83
2023-04-18T10:42:20.228Z,30.35
2023-04-18T10:45:27.185Z,30.59
2023-04-18T10:48:30.490Z,31.11
2023-04-18T10:52:00.644Z,31.58
2023-04-18T10:54:32.563Z,31.41
2023-04-18T10:57:03.179Z,31.37
2023-04-18T10:59:33.653Z,31.52
2023-04-18T11:02:12.774Z,31.80
2023-04-18T11:04:41.478Z,31.56
2023-04-18T11:07:09.966Z,31.31
2023-04-18T11:09:39.159Z,31.55
2023-04-18T11:12:10.813Z,31.94
2023-04-18T11:14:49.665Z,32.29
2023-04-18T11:17:26.942Z,32.96
2023-04-18T11:20:02.615Z,33.23
2023-04-18T11:22:31.725Z,33.37
2023-04-18T11:25:10.050Z,33.75
2023-04-18T11:27:41.148Z,34.06
2023-04-18T11:30:10.295Z,33.97
2023-04-18T11:32:39.967Z,33.56
2023-04-18T11:35:09.693Z,33.26
2023-04-18T11:37:38.868Z,33.30
2023-04-18T11:40:13.552Z,33.24
2023-04-18T11:42:42.801Z,33.65
2023-04-18T11:45:14.841Z,34.01
2023-04-18T11:47:45.144Z,33.74
2023-04-18T11:50:13.959Z,33.56
2023-04-18T11:52:42.779Z,33.64
2023-04-18T11:55:17.954Z,33.69
2023-04-18T12:01:53.177Z,33.61
2023-04-18T12:08:06.999Z,33.53
2023-04-18T12:10:37.101Z,33.73
2023-04-18T12:13:08.977Z,34.19
2023-04-18T12:15:40.376Z,34.15
2023-04-18T12:18:11.164Z,34.03
2023-04-18T12:20:54.639Z,34.13
2023-04-18T12:23:36.459Z,34.30
2023-04-18T12:26:15.419Z,34.57
2023-04-18T12:28:46.308Z,34.48
2023-04-18T12:31:17.041Z,34.41
2023-04-18T12:33:48.107Z,34.32
2023-04-18T12:36:26.653Z,34.80
2023-04-18T12:38:58.833Z,34.80
2023-04-18T12:41:27.854Z,34.33
2023-04-18T12:43:59.282Z,34.40
2023-04-18T12:46:29.570Z,34.61
2023-04-18T12:49:00.950Z,34.59
2023-04-18T12:51:31.704Z,34.44
2023-04-18T12:54:01.556Z,34.36
2023-04-18T12:56:51.065Z,34.24
2023-04-18T13:00:04.869Z,34.67
2023-04-18T13:02:37.808Z,35.14
2023-04-18T13:05:08.719Z,35.17
2023-04-18T13:07:41.160Z,35.19
2023-04-18T13:10:11.860Z,35.22
2023-04-18T13:12:41.716Z,35.25
2023-04-18T13:15:12.144Z,35.50
2023-04-18T13:17:41.067Z,35.43
2023-04-18T13:20:10.874Z,35.48
2023-04-18T13:22:41.150Z,35.56
2023-04-18T13:25:13.195Z,35.60
2023-04-18T13:27:42.258Z,35.81
2023-04-18T13:30:11.374Z,35.73
2023-04-18T13:32:41.863Z,35.89
2023-04-18T13:35:11.765Z,36.07
2023-04-18T13:37:41.032Z,36.03
2023-04-18T13:40:09.942Z,36.42
2023-04-18T13:42:40.175Z,36.08
2023-04-18T13:45:09.252Z,36.08
2023-04-18T13:47:38.066Z,36.76
2023-04-18T13:50:08.349Z,36.46
2023-04-18T13:52:37.983Z,36.33
2023-04-18T13:55:10.753Z,36.23
2023-04-18T13:57:39.655Z,36.81
2023-04-18T14:00:09.596Z,36.49
2023-04-18T14:02:41.750Z,36.50
2023-04-18T14:05:10.895Z,36.82
2023-04-18T14:07:39.663Z,36.92
2023-04-18T14:10:08.665Z,37.04
2023-04-18T14:12:37.835Z,37.11
2023-04-18T14:15:07.487Z,37.34
2023-04-18T14:17:37.261Z,37.30
2023-04-18T14:20:06.706Z,37.28
2023-04-18T14:22:35.336Z,37.08
2023-04-18T14:25:04.170Z,37.07
2023-04-18T14:27:33.150Z,36.78
2023-04-18T14:30:01.618Z,36.56
2023-04-18T14:32:30.927Z,36.31
2023-04-18T14:34:59.475Z,36.35
2023-04-18T14:37:28.494Z,36.63
2023-04-18T14:39:57.531Z,36.68
2023-04-18T14:42:26.013Z,36.98
2023-04-18T14:44:54.679Z,37.18
2023-04-18T14:47:24.371Z,37.16
2023-04-18T14:49:53.263Z,37.07
2023-04-18T14:52:21.852Z,37.09
2023-04-18T14:54:50.351Z,36.95
2023-04-18T14:57:18.808Z,37.00
2023-04-18T14:59:47.405Z,37.25
2023-04-18T15:02:16.068Z,37.28
2023-04-18T15:04:44.877Z,37.76
2023-04-18T15:07:13.842Z,37.90
2023-04-18T15:09:42.486Z,38.02
2023-04-18T15:12:11.000Z,38.18
2023-04-18T15:14:39.922Z,38.39
2023-04-18T15:17:08.428Z,38.42
2023-04-18T15:19:37.007Z,38.71
2023-04-18T15:22:05.441Z,38.86
2023-04-18T15:24:33.959Z,38.96
2023-04-18T15:27:02.599Z,39.18
2023-04-18T15:29:31.258Z,39.25
2023-04-18T15:32:00.098Z,39.24
2023-04-18T15:34:28.654Z,39.32
2023-04-18T15:36:57.128Z,39.63
2023-04-18T15:39:25.866Z,40.11
2023-04-18T15:41:54.893Z,40.00
2023-04-18T15:44:23.503Z,40.31
2023-04-18T15:46:51.953Z,40.33
2023-04-18T15:49:20.514Z,40.58
2023-04-18T15:51:49.287Z,40.47
2023-04-18T15:54:17.648Z,40.55
2023-04-18T15:56:46.261Z,40.59
2023-04-18T15:59:14.938Z,40.68
2023-04-18T16:01:45.652Z,40.81
2023-04-18T16:04:14.883Z,40.85
2023-04-18T16:06:43.911Z,40.85
2023-04-18T16:09:12.459Z,40.95
2023-04-18T16:11:41.213Z,41.00
2023-04-18T16:14:09.742Z,41.00
2023-04-18T16:16:38.211Z,41.21
2023-04-18T16:19:06.695Z,41.21
2023-04-18T16:21:35.209Z,41.35
2023-04-18T16:24:03.896Z,41.54
2023-04-18T16:26:32.732Z,41.47
2023-04-18T16:29:01.369Z,41.65
2023-04-18T16:31:30.117Z,41.95
2023-04-18T16:33:58.472Z,41.97
2023-04-18T16:36:26.883Z,42.17
2023-04-18T16:38:55.185Z,42.32
2023-04-18T16:41:23.829Z,42.40
2023-04-18T16:43:52.463Z,42.59
2023-04-18T16:46:21.217Z,42.82
2023-04-18T16:48:52.322Z,42.92
2023-04-18T16:51:21.292Z,43.16
2023-04-18T16:53:49.805Z,43.37
2023-04-18T16:56:18.093Z,43.48
2023-04-18T16:58:46.745Z,43.58
2023-04-18T17:01:15.127Z,43.64
2023-04-18T17:03:43.911Z,43.87
2023-04-18T17:06:12.426Z,43.90
2023-04-18T17:08:41.141Z,44.02
2023-04-18T17:11:09.675Z,44.02
2023-04-18T17:13:39.731Z,44.15
2023-04-18T17:16:08.456Z,44.27
2023-04-18T17:18:37.174Z,44.16
2023-04-18T17:21:05.943Z,44.47
2023-04-18T17:23:34.530Z,44.73
2023-04-18T17:26:03.126Z,44.64
2023-04-18T17:28:32.227Z,44.89
2023-04-18T17:31:02.086Z,45.02
2023-04-18T17:33:31.379Z,45.06
2023-04-18T17:36:00.217Z,45.21
2023-04-18T17:38:28.891Z,45.33
2023-04-18T17:41:01.252Z,45.56
2023-04-18T17:43:30.064Z,45.64
2023-04-18T17:45:59.690Z,45.71
2023-04-18T17:48:28.543Z,45.75
2023-04-18T17:50:57.294Z,45.92
2023-04-18T18:03:18.044Z,46.44
2023-04-18T18:05:47.944Z,46.31
2023-04-18T18:08:17.950Z,46.49
2023-04-18T18:10:47.768Z,46.61
2023-04-18T18:13:17.837Z,46.55
2023-04-18T18:15:46.734Z,46.70
2023-04-18T18:18:30.045Z,46.80
2023-04-18T18:20:59.896Z,46.69
2023-04-18T18:23:29.286Z,46.88
2023-04-18T18:25:58.015Z,46.96
2023-04-18T18:28:26.856Z,46.87
2023-04-18T18:30:55.609Z,46.95
2023-04-18T18:33:24.372Z,47.09
2023-04-18T18:35:53.839Z,47.26
2023-04-18T18:38:22.624Z,47.17
2023-04-18T18:40:51.974Z,47.06
2023-04-18T18:43:20.864Z,47.21
2023-04-18T18:45:49.553Z,47.47
2023-04-18T18:48:18.315Z,47.50
2023-04-18T18:50:47.104Z,47.64
2023-04-18T18:53:18.137Z,47.67
2023-04-18T18:55:46.888Z,47.90
2023-04-18T18:58:16.051Z,47.75
2023-04-18T19:00:45.467Z,47.96
2023-04-18T19:03:14.593Z,48.01
2023-04-18T19:05:43.525Z,48.36
2023-04-18T19:08:12.455Z,48.19
2023-04-18T19:10:41.709Z,48.33
2023-04-18T19:13:10.437Z,48.69
2023-04-18T19:15:39.380Z,48.69
2023-04-18T19:18:08.142Z,48.73
2023-04-18T19:20:41.889Z,48.64
2023-04-18T19:23:11.762Z,49.09
2023-04-18T19:25:40.427Z,48.92
2023-04-18T19:28:09.521Z,49.06
2023-04-18T19:30:38.064Z,49.04
2023-04-18T19:33:06.607Z,49.33
2023-04-18T19:35:37.778Z,49.59
2023-04-18T19:38:07.018Z,49.58
2023-04-18T19:40:42.497Z,49.24
2023-04-18T19:43:11.832Z,49.73
2023-04-18T19:45:41.495Z,49.76
2023-04-18T19:48:13.087Z,49.94
2023-04-18T19:50:46.154Z,50.03
2023-04-18T19:53:16.563Z,50.54
2023-04-18T19:55:48.877Z,50.47
2023-04-18T19:58:43.020Z,50.69
2023-04-18T20:01:15.662Z,50.90
2023-04-18T20:03:47.267Z,50.91
2023-04-18T20:06:17.756Z,50.84
2023-04-18T20:08:47.556Z,51.13
2023-04-18T20:11:16.749Z,51.14
2023-04-18T20:13:45.819Z,51.23
2023-04-18T20:16:17.975Z,51.28
2023-04-18T20:18:47.671Z,51.35
2023-04-18T20:21:16.955Z,51.39
2023-04-18T20:23:46.777Z,51.57
2023-04-18T20:26:35.848Z,51.69
2023-04-18T20:29:05.255Z,51.71
2023-04-18T20:31:36.227Z,51.75
2023-04-18T20:34:06.697Z,51.81
2023-04-18T20:36:35.646Z,51.77
2023-04-18T20:39:06.427Z,51.89
2023-04-18T20:41:37.184Z,52.12
2023-04-18T20:44:07.176Z,52.12
2023-04-18T20:46:37.719Z,51.97
2023-04-18T20:49:07.639Z,52.10
2023-04-18T20:51:39.425Z,52.25
2023-04-18T20:54:09.987Z,52.35
2023-04-18T20:56:38.573Z,52.52
2023-04-18T20:59:07.313Z,52.43
2023-04-18T21:01:37.331Z,52.68
2023-04-18T21:04:06.127Z,52.69
2023-04-18T21:06:35.187Z,52.90
2023-04-18T21:09:04.163Z,53.11
2023-04-18T21:11:33.687Z,53.46
2023-04-18T21:14:06.273Z,53.57
2023-04-18T21:16:35.642Z,53.67
2023-04-18T21:19:04.144Z,53.34
2023-04-18T21:21:34.525Z,53.55
2023-04-18T21:24:03.768Z,53.47
2023-04-18T21:26:32.694Z,53.46
2023-04-18T21:29:02.746Z,53.69
2023-04-18T21:31:32.166Z,53.90
2023-04-18T21:34:02.155Z,53.87
2023-04-18T21:36:31.466Z,54.05
2023-04-18T21:39:01.102Z,54.09
2023-04-18T21:41:30.280Z,53.98
2023-04-18T21:43:58.737Z,54.24
2023-04-18T21:46:27.302Z,54.33
2023-04-18T21:48:55.843Z,54.37
2023-04-18T21:51:24.511Z,54.52
2023-04-18T21:53:54.015Z,54.51
2023-04-18T21:56:22.519Z,54.56
2023-04-18T21:58:51.262Z,54.91
2023-04-18T22:01:19.738Z,55.11
2023-04-18T22:03:48.568Z,55.39
2023-04-18T22:06:17.153Z,55.31
2023-04-18T22:08:45.625Z,55.29
2023-04-18T22:11:14.087Z,55.55
2023-04-18T22:13:45.053Z,55.67
2023-04-18T22:16:13.749Z,55.48
2023-04-18T22:18:42.344Z,55.66
2023-04-18T22:21:10.788Z,55.73
2023-04-18T22:23:39.343Z,55.93
2023-04-18T22:26:07.813Z,55.83
2023-04-18T22:28:36.421Z,55.74
2023-04-18T22:31:05.176Z,55.88
2023-04-18T22:33:33.869Z,55.82
2023-04-18T22:36:02.412Z,55.82
2023-04-18T22:38:30.976Z,55.91
2023-04-18T22:41:00.899Z,56.23
2023-04-18T22:43:29.675Z,56.14
2023-04-18T22:45:58.290Z,55.93
2023-04-18T22:48:26.604Z,55.70
2023-04-18T22:50:55.467Z,55.86
2023-04-18T22:53:24.939Z,56.20
2023-04-18T22:55:53.332Z,56.20
2023-04-18T22:58:21.765Z,56.12
2023-04-18T23:00:50.448Z,55.99
2023-04-18T23:03:20.184Z,55.95
2023-04-18T23:05:48.679Z,55.98
2023-04-18T23:08:18.974Z,55.90
2023-04-18T23:10:47.351Z,55.96
2023-04-18T23:13:15.740Z,55.84
2023-04-18T23:15:44.282Z,55.92
2023-04-18T23:18:12.855Z,55.87
2023-04-18T23:20:41.334Z,56.02
2023-04-18T23:23:09.969Z,56.02
2023-04-18T23:25:38.584Z,56.18
2023-04-18T23:28:07.516Z,56.02
2023-04-18T23:30:37.330Z,56.12
2023-04-18T23:33:06.114Z,56.26
2023-04-18T23:35:34.890Z,56.52
2023-04-18T23:38:03.680Z,56.81
2023-04-18T23:40:32.369Z,56.89
2023-04-18T23:43:01.662Z,57.02
2023-04-18T23:45:30.193Z,57.10
2023-04-18T23:47:58.710Z,57.18
2023-04-18T23:50:27.330Z,57.11
2023-04-18T23:52:56.035Z,57.13
2023-04-18T23:55:24.542Z,57.25
2023-04-18T23:57:53.017Z,57.34
